sensor_id;sensor_type;location;lat;lon;timestamp;P1;durP1;ratioP1;P2;durP2;ratioP2
65375;SDS011;51976;47.332;9.404;2023-04-03T00:01:14;0.40;;;0.25;;
65375;SDS011;51976;47.332;9.404;2023-04-03T00:03:40;0.60;;;0.20;;
65375;SDS011;51976;47.332;9.404;2023-04-03T00:06:06;0.30;;;0.15;;
65375;SDS011;51976;47.332;9.404;2023-04-03T00:08:33;0.25;;;0.10;;
65375;SDS011;51976;47.332;9.404;2023-04-03T00:10:59;0.40;;;0.20;;
65375;SDS011;51976;47.332;9.404;2023-04-03T00:13:25;0.47;;;0.30;;
65375;SDS011;51976;47.332;9.404;2023-04-03T00:15:50;0.50;;;0.30;;
65375;SDS011;51976;47.332;9.404;2023-04-03T00:18:16;0.22;;;0.20;;
65375;SDS011;51976;47.332;9.404;2023-04-03T00:20:42;0.50;;;0.22;;
65375;SDS011;51976;47.332;9.404;2023-04-03T00:23:07;0.80;;;0.50;;
65375;SDS011;51976;47.332;9.404;2023-04-03T00:25:33;0.88;;;0.55;;
65375;SDS011;51976;47.332;9.404;2023-04-03T00:27:59;0.40;;;0.35;;
65375;SDS011;51976;47.332;9.404;2023-04-03T00:30:24;0.60;;;0.40;;
65375;SDS011;51976;47.332;9.404;2023-04-03T00:32:50;1.25;;;0.65;;
65375;SDS011;51976;47.332;9.404;2023-04-03T00:35:17;0.70;;;0.40;;
65375;SDS011;51976;47.332;9.404;2023-04-03T00:37:43;0.70;;;0.50;;
65375;SDS011;51976;47.332;9.404;2023-04-03T00:40:09;0.75;;;0.60;;
65375;SDS011;51976;47.332;9.404;2023-04-03T00:42:37;0.95;;;0.65;;
65375;SDS011;51976;47.332;9.404;2023-04-03T00:45:25;1.23;;;0.75;;
65375;SDS011;51976;47.332;9.404;2023-04-03T00:47:54;0.82;;;0.60;;
65375;SDS011;51976;47.332;9.404;2023-04-03T00:50:20;3.10;;;1.00;;
65375;SDS011;51976;47.332;9.404;2023-04-03T00:52:47;1.83;;;1.10;;
65375;SDS011;51976;47.332;9.404;2023-04-03T00:55:14;1.40;;;1.00;;
65375;SDS011;51976;47.332;9.404;2023-04-03T00:57:40;1.58;;;0.90;;
65375;SDS011;51976;47.332;9.404;2023-04-03T01:00:09;1.60;;;1.10;;
65375;SDS011;51976;47.332;9.404;2023-04-03T01:02:36;1.55;;;1.08;;
65375;SDS011;51976;47.332;9.404;2023-04-03T01:05:03;1.35;;;1.02;;
65375;SDS011;51976;47.332;9.404;2023-04-03T01:07:30;2.28;;;1.38;;
65375;SDS011;51976;47.332;9.404;2023-04-03T01:09:57;1.65;;;1.15;;
65375;SDS011;51976;47.332;9.404;2023-04-03T01:12:29;1.55;;;1.20;;
65375;SDS011;51976;47.332;9.404;2023-04-03T01:14:58;1.73;;;1.20;;
65375;SDS011;51976;47.332;9.404;2023-04-03T01:17:41;1.73;;;1.05;;
65375;SDS011;51976;47.332;9.404;2023-04-03T01:23:14;2.83;;;1.30;;
65375;SDS011;51976;47.332;9.404;2023-04-03T01:25:52;2.60;;;1.70;;
65375;SDS011;51976;47.332;9.404;2023-04-03T01:28:21;1.42;;;1.13;;
65375;SDS011;51976;47.332;9.404;2023-04-03T01:30:56;1.63;;;1.27;;
65375;SDS011;51976;47.332;9.404;2023-04-03T01:33:35;1.80;;;1.10;;
65375;SDS011;51976;47.332;9.404;2023-04-03T01:36:02;3.28;;;1.63;;
65375;SDS011;51976;47.332;9.404;2023-04-03T01:38:28;1.70;;;1.40;;
65375;SDS011;51976;47.332;9.404;2023-04-03T01:40:53;1.90;;;1.35;;
65375;SDS011;51976;47.332;9.404;2023-04-03T01:43:19;1.98;;;1.55;;
65375;SDS011;51976;47.332;9.404;2023-04-03T01:45:44;1.80;;;1.45;;
65375;SDS011;51976;47.332;9.404;2023-04-03T01:48:11;2.15;;;1.60;;
65375;SDS011;51976;47.332;9.404;2023-04-03T01:50:37;2.30;;;1.70;;
65375;SDS011;51976;47.332;9.404;2023-04-03T01:53:02;3.08;;;1.65;;
65375;SDS011;51976;47.332;9.404;2023-04-03T01:55:28;2.15;;;1.58;;
65375;SDS011;51976;47.332;9.404;2023-04-03T01:57:53;2.90;;;2.00;;
65375;SDS011;51976;47.332;9.404;2023-04-03T02:00:18;2.85;;;2.00;;
65375;SDS011;51976;47.332;9.404;2023-04-03T02:02:44;2.33;;;1.75;;
65375;SDS011;51976;47.332;9.404;2023-04-03T02:05:09;3.35;;;1.95;;
65375;SDS011;51976;47.332;9.404;2023-04-03T02:07:35;1.88;;;1.70;;
65375;SDS011;51976;47.332;9.404;2023-04-03T02:10:00;1.80;;;1.60;;
65375;SDS011;51976;47.332;9.404;2023-04-03T02:12:26;3.17;;;2.22;;
65375;SDS011;51976;47.332;9.404;2023-04-03T02:14:51;5.47;;;3.28;;
65375;SDS011;51976;47.332;9.404;2023-04-03T02:17:17;3.30;;;2.50;;
65375;SDS011;51976;47.332;9.404;2023-04-03T02:19:42;3.13;;;2.33;;
65375;SDS011;51976;47.332;9.404;2023-04-03T02:22:08;2.60;;;2.25;;
65375;SDS011;51976;47.332;9.404;2023-04-03T02:24:33;3.28;;;2.80;;
65375;SDS011;51976;47.332;9.404;2023-04-03T02:26:59;4.47;;;2.78;;
65375;SDS011;51976;47.332;9.404;2023-04-03T02:29:24;3.22;;;2.63;;
65375;SDS011;51976;47.332;9.404;2023-04-03T02:31:50;4.55;;;3.00;;
65375;SDS011;51976;47.332;9.404;2023-04-03T02:34:15;4.45;;;3.05;;
65375;SDS011;51976;47.332;9.404;2023-04-03T02:36:41;4.88;;;3.13;;
65375;SDS011;51976;47.332;9.404;2023-04-03T02:39:06;5.03;;;3.25;;
65375;SDS011;51976;47.332;9.404;2023-04-03T02:41:32;3.45;;;2.97;;
65375;SDS011;51976;47.332;9.404;2023-04-03T02:44:03;5.40;;;3.13;;
65375;SDS011;51976;47.332;9.404;2023-04-03T02:46:30;6.60;;;3.42;;
65375;SDS011;51976;47.332;9.404;2023-04-03T02:48:56;4.38;;;3.50;;
65375;SDS011;51976;47.332;9.404;2023-04-03T02:51:21;4.63;;;3.55;;
65375;SDS011;51976;47.332;9.404;2023-04-03T02:53:48;4.43;;;3.33;;
65375;SDS011;51976;47.332;9.404;2023-04-03T02:56:14;4.28;;;3.45;;
65375;SDS011;51976;47.332;9.404;2023-04-03T02:58:40;4.75;;;3.78;;
65375;SDS011;51976;47.332;9.404;2023-04-03T03:01:05;5.00;;;3.85;;
65375;SDS011;51976;47.332;9.404;2023-04-03T03:03:31;5.50;;;3.50;;
65375;SDS011;51976;47.332;9.404;2023-04-03T03:06:03;5.00;;;3.58;;
65375;SDS011;51976;47.332;9.404;2023-04-03T03:08:30;4.43;;;3.50;;
65375;SDS011;51976;47.332;9.404;2023-04-03T03:10:55;5.53;;;4.07;;
65375;SDS011;51976;47.332;9.404;2023-04-03T03:13:21;5.35;;;3.83;;
65375;SDS011;51976;47.332;9.404;2023-04-03T03:15:46;4.35;;;3.72;;
65375;SDS011;51976;47.332;9.404;2023-04-03T03:18:11;6.05;;;3.70;;
65375;SDS011;51976;47.332;9.404;2023-04-03T03:20:37;5.00;;;4.07;;
65375;SDS011;51976;47.332;9.404;2023-04-03T03:23:02;5.80;;;4.13;;
65375;SDS011;51976;47.332;9.404;2023-04-03T03:25:27;4.88;;;3.78;;
65375;SDS011;51976;47.332;9.404;2023-04-03T03:27:53;5.65;;;4.63;;
65375;SDS011;51976;47.332;9.404;2023-04-03T03:30:18;6.68;;;3.75;;
65375;SDS011;51976;47.332;9.404;2023-04-03T03:32:44;5.55;;;4.13;;
65375;SDS011;51976;47.332;9.404;2023-04-03T03:35:09;6.25;;;3.90;;
65375;SDS011;51976;47.332;9.404;2023-04-03T03:37:34;6.07;;;3.58;;
65375;SDS011;51976;47.332;9.404;2023-04-03T03:40:00;5.68;;;3.80;;
65375;SDS011;51976;47.332;9.404;2023-04-03T03:42:25;4.85;;;3.80;;
65375;SDS011;51976;47.332;9.404;2023-04-03T03:44:50;5.05;;;4.07;;
65375;SDS011;51976;47.332;9.404;2023-04-03T03:47:16;6.18;;;4.32;;
65375;SDS011;51976;47.332;9.404;2023-04-03T03:49:42;5.10;;;4.00;;
65375;SDS011;51976;47.332;9.404;2023-04-03T03:52:07;6.57;;;3.95;;
65375;SDS011;51976;47.332;9.404;2023-04-03T03:54:35;6.93;;;4.40;;
65375;SDS011;51976;47.332;9.404;2023-04-03T03:57:02;4.70;;;3.63;;
65375;SDS011;51976;47.332;9.404;2023-04-03T03:59:27;4.57;;;3.70;;
65375;SDS011;51976;47.332;9.404;2023-04-03T04:01:52;4.45;;;3.33;;
65375;SDS011;51976;47.332;9.404;2023-04-03T04:04:18;6.13;;;3.85;;
65375;SDS011;51976;47.332;9.404;2023-04-03T04:06:43;6.57;;;3.92;;
65375;SDS011;51976;47.332;9.404;2023-04-03T04:09:09;5.03;;;3.67;;
65375;SDS011;51976;47.332;9.404;2023-04-03T04:11:34;5.28;;;4.18;;
65375;SDS011;51976;47.332;9.404;2023-04-03T04:14:00;4.85;;;3.63;;
65375;SDS011;51976;47.332;9.404;2023-04-03T04:16:25;5.20;;;3.85;;
65375;SDS011;51976;47.332;9.404;2023-04-03T04:18:50;6.18;;;4.00;;
65375;SDS011;51976;47.332;9.404;2023-04-03T04:21:16;6.95;;;3.78;;
65375;SDS011;51976;47.332;9.404;2023-04-03T04:23:41;4.53;;;3.75;;
65375;SDS011;51976;47.332;9.404;2023-04-03T04:26:07;4.70;;;3.40;;
65375;SDS011;51976;47.332;9.404;2023-04-03T04:28:32;4.63;;;3.92;;
65375;SDS011;51976;47.332;9.404;2023-04-03T04:30:57;6.78;;;4.10;;
65375;SDS011;51976;47.332;9.404;2023-04-03T04:33:23;5.22;;;3.70;;
65375;SDS011;51976;47.332;9.404;2023-04-03T04:35:48;5.18;;;4.25;;
65375;SDS011;51976;47.332;9.404;2023-04-03T04:38:14;5.47;;;4.07;;
65375;SDS011;51976;47.332;9.404;2023-04-03T04:40:39;6.20;;;4.15;;
65375;SDS011;51976;47.332;9.404;2023-04-03T04:43:05;5.85;;;4.45;;
65375;SDS011;51976;47.332;9.404;2023-04-03T04:45:30;6.32;;;4.75;;
65375;SDS011;51976;47.332;9.404;2023-04-03T04:47:56;6.00;;;4.25;;
65375;SDS011;51976;47.332;9.404;2023-04-03T04:50:21;6.75;;;4.22;;
65375;SDS011;51976;47.332;9.404;2023-04-03T04:52:47;5.75;;;4.28;;
65375;SDS011;51976;47.332;9.404;2023-04-03T04:55:12;5.35;;;4.40;;
65375;SDS011;51976;47.332;9.404;2023-04-03T04:57:38;4.97;;;3.92;;
65375;SDS011;51976;47.332;9.404;2023-04-03T05:00:04;7.53;;;4.45;;
65375;SDS011;51976;47.332;9.404;2023-04-03T05:02:30;5.75;;;4.10;;
65375;SDS011;51976;47.332;9.404;2023-04-03T05:04:55;7.47;;;3.90;;
65375;SDS011;51976;47.332;9.404;2023-04-03T05:07:21;6.82;;;3.83;;
65375;SDS011;51976;47.332;9.404;2023-04-03T05:09:47;7.63;;;4.03;;
65375;SDS011;51976;47.332;9.404;2023-04-03T05:12:12;6.57;;;4.50;;
65375;SDS011;51976;47.332;9.404;2023-04-03T05:14:38;7.40;;;4.45;;
65375;SDS011;51976;47.332;9.404;2023-04-03T05:17:03;7.15;;;4.30;;
65375;SDS011;51976;47.332;9.404;2023-04-03T05:19:28;6.63;;;4.53;;
65375;SDS011;51976;47.332;9.404;2023-04-03T05:21:54;6.82;;;4.55;;
65375;SDS011;51976;47.332;9.404;2023-04-03T05:24:19;5.95;;;3.63;;
65375;SDS011;51976;47.332;9.404;2023-04-03T05:26:45;4.75;;;3.80;;
65375;SDS011;51976;47.332;9.404;2023-04-03T05:29:10;7.93;;;4.40;;
65375;SDS011;51976;47.332;9.404;2023-04-03T05:31:36;7.45;;;4.72;;
65375;SDS011;51976;47.332;9.404;2023-04-03T05:34:01;7.10;;;4.68;;
65375;SDS011;51976;47.332;9.404;2023-04-03T05:36:27;5.95;;;4.43;;
65375;SDS011;51976;47.332;9.404;2023-04-03T05:38:52;6.15;;;4.65;;
65375;SDS011;51976;47.332;9.404;2023-04-03T05:41:18;6.90;;;4.30;;
65375;SDS011;51976;47.332;9.404;2023-04-03T05:43:45;5.90;;;4.03;;
65375;SDS011;51976;47.332;9.404;2023-04-03T05:46:11;6.22;;;4.43;;
65375;SDS011;51976;47.332;9.404;2023-04-03T05:48:38;8.77;;;5.10;;
65375;SDS011;51976;47.332;9.404;2023-04-03T05:51:04;6.03;;;4.53;;
65375;SDS011;51976;47.332;9.404;2023-04-03T05:53:30;6.63;;;4.57;;
65375;SDS011;51976;47.332;9.404;2023-04-03T05:55:58;7.07;;;4.60;;
65375;SDS011;51976;47.332;9.404;2023-04-03T05:58:23;6.18;;;4.70;;
65375;SDS011;51976;47.332;9.404;2023-04-03T06:00:49;6.80;;;4.97;;
65375;SDS011;51976;47.332;9.404;2023-04-03T06:03:14;5.43;;;4.47;;
65375;SDS011;51976;47.332;9.404;2023-04-03T06:05:40;8.43;;;5.82;;
65375;SDS011;51976;47.332;9.404;2023-04-03T06:08:06;9.15;;;6.13;;
65375;SDS011;51976;47.332;9.404;2023-04-03T06:10:32;8.27;;;5.97;;
65375;SDS011;51976;47.332;9.404;2023-04-03T06:12:57;6.65;;;4.97;;
65375;SDS011;51976;47.332;9.404;2023-04-03T06:15:22;7.88;;;5.82;;
65375;SDS011;51976;47.332;9.404;2023-04-03T06:17:48;7.25;;;5.55;;
65375;SDS011;51976;47.332;9.404;2023-04-03T06:20:14;8.23;;;5.78;;
65375;SDS011;51976;47.332;9.404;2023-04-03T06:22:40;7.97;;;5.30;;
65375;SDS011;51976;47.332;9.404;2023-04-03T06:25:07;7.65;;;4.93;;
65375;SDS011;51976;47.332;9.404;2023-04-03T06:27:34;7.32;;;5.15;;
65375;SDS011;51976;47.332;9.404;2023-04-03T06:29:59;7.32;;;5.88;;
65375;SDS011;51976;47.332;9.404;2023-04-03T06:32:25;7.22;;;5.50;;
65375;SDS011;51976;47.332;9.404;2023-04-03T06:34:50;8.15;;;5.75;;
65375;SDS011;51976;47.332;9.404;2023-04-03T06:37:19;7.68;;;5.63;;
65375;SDS011;51976;47.332;9.404;2023-04-03T06:39:47;8.38;;;6.00;;
65375;SDS011;51976;47.332;9.404;2023-04-03T06:42:13;7.45;;;5.95;;
65375;SDS011;51976;47.332;9.404;2023-04-03T06:44:38;8.85;;;5.78;;
65375;SDS011;51976;47.332;9.404;2023-04-03T06:47:03;9.63;;;5.80;;
65375;SDS011;51976;47.332;9.404;2023-04-03T06:49:29;8.93;;;5.88;;
65375;SDS011;51976;47.332;9.404;2023-04-03T06:51:57;9.57;;;5.90;;
65375;SDS011;51976;47.332;9.404;2023-04-03T06:54:23;7.00;;;5.55;;
65375;SDS011;51976;47.332;9.404;2023-04-03T06:56:48;7.78;;;6.07;;
65375;SDS011;51976;47.332;9.404;2023-04-03T06:59:15;7.82;;;5.88;;
65375;SDS011;51976;47.332;9.404;2023-04-03T07:01:40;7.70;;;5.07;;
65375;SDS011;51976;47.332;9.404;2023-04-03T07:04:07;7.65;;;5.70;;
65375;SDS011;51976;47.332;9.404;2023-04-03T07:06:33;6.15;;;4.80;;
65375;SDS011;51976;47.332;9.404;2023-04-03T07:08:59;8.80;;;5.78;;
65375;SDS011;51976;47.332;9.404;2023-04-03T07:11:25;7.07;;;5.38;;
65375;SDS011;51976;47.332;9.404;2023-04-03T07:13:51;8.90;;;5.35;;
65375;SDS011;51976;47.332;9.404;2023-04-03T07:16:17;7.72;;;5.43;;
65375;SDS011;51976;47.332;9.404;2023-04-03T07:18:43;8.02;;;5.47;;
65375;SDS011;51976;47.332;9.404;2023-04-03T07:21:08;6.80;;;5.30;;
65375;SDS011;51976;47.332;9.404;2023-04-03T07:23:34;6.95;;;4.57;;
65375;SDS011;51976;47.332;9.404;2023-04-03T07:26:00;7.68;;;5.45;;
65375;SDS011;51976;47.332;9.404;2023-04-03T07:28:26;6.55;;;5.13;;
65375;SDS011;51976;47.332;9.404;2023-04-03T07:30:53;6.65;;;5.00;;
65375;SDS011;51976;47.332;9.404;2023-04-03T07:33:25;18.00;;;5.30;;
65375;SDS011;51976;47.332;9.404;2023-04-03T07:35:50;9.45;;;5.38;;
65375;SDS011;51976;47.332;9.404;2023-04-03T07:38:15;11.15;;;6.57;;
65375;SDS011;51976;47.332;9.404;2023-04-03T07:40:45;9.18;;;6.00;;
65375;SDS011;51976;47.332;9.404;2023-04-03T07:43:11;9.35;;;6.35;;
65375;SDS011;51976;47.332;9.404;2023-04-03T07:45:36;9.50;;;6.70;;
65375;SDS011;51976;47.332;9.404;2023-04-03T07:48:02;12.50;;;7.80;;
65375;SDS011;51976;47.332;9.404;2023-04-03T07:50:28;18.05;;;8.65;;
65375;SDS011;51976;47.332;9.404;2023-04-03T07:52:55;10.15;;;6.70;;
65375;SDS011;51976;47.332;9.404;2023-04-03T07:55:22;8.30;;;6.10;;
65375;SDS011;51976;47.332;9.404;2023-04-03T07:57:48;15.80;;;8.93;;
65375;SDS011;51976;47.332;9.404;2023-04-03T08:00:13;15.77;;;8.98;;
65375;SDS011;51976;47.332;9.404;2023-04-03T08:02:39;13.73;;;8.55;;
65375;SDS011;51976;47.332;9.404;2023-04-03T08:05:05;14.35;;;8.15;;
65375;SDS011;51976;47.332;9.404;2023-04-03T08:07:31;11.48;;;7.28;;
65375;SDS011;51976;47.332;9.404;2023-04-03T08:09:56;9.70;;;6.63;;
65375;SDS011;51976;47.332;9.404;2023-04-03T08:12:22;11.18;;;6.82;;
65375;SDS011;51976;47.332;9.404;2023-04-03T08:14:47;11.88;;;7.53;;
65375;SDS011;51976;47.332;9.404;2023-04-03T08:17:12;8.70;;;5.85;;
65375;SDS011;51976;47.332;9.404;2023-04-03T08:19:38;15.27;;;7.30;;
65375;SDS011;51976;47.332;9.404;2023-04-03T08:22:05;9.48;;;6.72;;
65375;SDS011;51976;47.332;9.404;2023-04-03T08:24:31;8.15;;;5.85;;
65375;SDS011;51976;47.332;9.404;2023-04-03T08:26:57;10.60;;;5.70;;
65375;SDS011;51976;47.332;9.404;2023-04-03T08:29:23;8.32;;;5.95;;
65375;SDS011;51976;47.332;9.404;2023-04-03T08:31:49;8.48;;;5.20;;
65375;SDS011;51976;47.332;9.404;2023-04-03T08:34:15;8.25;;;5.13;;
65375;SDS011;51976;47.332;9.404;2023-04-03T08:36:41;7.78;;;5.45;;
65375;SDS011;51976;47.332;9.404;2023-04-03T08:39:07;10.48;;;5.40;;
65375;SDS011;51976;47.332;9.404;2023-04-03T08:41:36;8.85;;;5.55;;
65375;SDS011;51976;47.332;9.404;2023-04-03T08:47:18;10.27;;;5.60;;
65375;SDS011;51976;47.332;9.404;2023-04-03T08:49:56;7.30;;;4.65;;
65375;SDS011;51976;47.332;9.404;2023-04-03T08:52:30;8.13;;;4.80;;
65375;SDS011;51976;47.332;9.404;2023-04-03T08:55:02;7.43;;;4.55;;
65375;SDS011;51976;47.332;9.404;2023-04-03T08:57:31;8.05;;;4.70;;
65375;SDS011;51976;47.332;9.404;2023-04-03T09:00:04;8.20;;;4.90;;
65375;SDS011;51976;47.332;9.404;2023-04-03T09:02:44;9.80;;;5.18;;
65375;SDS011;51976;47.332;9.404;2023-04-03T09:05:13;6.88;;;4.72;;
65375;SDS011;51976;47.332;9.404;2023-04-03T09:07:43;6.05;;;4.15;;
65375;SDS011;51976;47.332;9.404;2023-04-03T09:10:13;7.30;;;4.90;;
65375;SDS011;51976;47.332;9.404;2023-04-03T09:12:44;7.70;;;4.97;;
65375;SDS011;51976;47.332;9.404;2023-04-03T09:15:17;9.82;;;5.45;;
65375;SDS011;51976;47.332;9.404;2023-04-03T09:18:08;8.15;;;5.53;;
65375;SDS011;51976;47.332;9.404;2023-04-03T09:20:49;7.50;;;5.10;;
65375;SDS011;51976;47.332;9.404;2023-04-03T09:23:46;8.73;;;5.10;;
65375;SDS011;51976;47.332;9.404;2023-04-03T09:26:28;10.70;;;5.05;;
65375;SDS011;51976;47.332;9.404;2023-04-03T09:29:00;8.25;;;5.78;;
65375;SDS011;51976;47.332;9.404;2023-04-03T09:31:35;7.18;;;4.72;;
65375;SDS011;51976;47.332;9.404;2023-04-03T09:34:05;6.80;;;4.95;;
65375;SDS011;51976;47.332;9.404;2023-04-03T09:36:45;6.57;;;4.53;;
65375;SDS011;51976;47.332;9.404;2023-04-03T09:39:16;6.15;;;5.13;;
65375;SDS011;51976;47.332;9.404;2023-04-03T09:41:54;8.60;;;5.40;;
65375;SDS011;51976;47.332;9.404;2023-04-03T09:44:37;7.82;;;5.57;;
65375;SDS011;51976;47.332;9.404;2023-04-03T09:49:50;10.15;;;5.72;;
65375;SDS011;51976;47.332;9.404;2023-04-03T09:52:34;7.55;;;5.47;;
65375;SDS011;51976;47.332;9.404;2023-04-03T09:55:06;7.65;;;5.13;;
65375;SDS011;51976;47.332;9.404;2023-04-03T09:57:41;8.25;;;5.25;;
65375;SDS011;51976;47.332;9.404;2023-04-03T10:00:19;7.38;;;5.05;;
65375;SDS011;51976;47.332;9.404;2023-04-03T10:02:56;8.07;;;5.20;;
65375;SDS011;51976;47.332;9.404;2023-04-03T10:05:26;7.70;;;5.80;;
65375;SDS011;51976;47.332;9.404;2023-04-03T10:10:46;7.05;;;4.47;;
65375;SDS011;51976;47.332;9.404;2023-04-03T10:13:14;6.47;;;4.63;;
65375;SDS011;51976;47.332;9.404;2023-04-03T10:15:48;7.97;;;5.10;;
65375;SDS011;51976;47.332;9.404;2023-04-03T10:18:46;6.63;;;4.30;;
65375;SDS011;51976;47.332;9.404;2023-04-03T10:21:13;6.43;;;4.22;;
65375;SDS011;51976;47.332;9.404;2023-04-03T10:23:50;14.73;;;6.80;;
65375;SDS011;51976;47.332;9.404;2023-04-03T10:26:46;8.50;;;4.82;;
65375;SDS011;51976;47.332;9.404;2023-04-03T10:29:26;9.45;;;5.22;;
65375;SDS011;51976;47.332;9.404;2023-04-03T10:32:25;9.05;;;6.50;;
65375;SDS011;51976;47.332;9.404;2023-04-03T10:34:59;8.93;;;6.63;;
65375;SDS011;51976;47.332;9.404;2023-04-03T10:37:49;10.88;;;5.43;;
65375;SDS011;51976;47.332;9.404;2023-04-03T10:40:30;7.93;;;5.65;;
65375;SDS011;51976;47.332;9.404;2023-04-03T10:43:10;10.63;;;6.47;;
65375;SDS011;51976;47.332;9.404;2023-04-03T10:45:55;8.68;;;5.85;;
65375;SDS011;51976;47.332;9.404;2023-04-03T10:48:34;6.13;;;4.45;;
65375;SDS011;51976;47.332;9.404;2023-04-03T10:51:28;9.20;;;5.63;;
65375;SDS011;51976;47.332;9.404;2023-04-03T10:54:11;7.47;;;4.80;;
65375;SDS011;51976;47.332;9.404;2023-04-03T10:56:44;6.85;;;5.18;;
65375;SDS011;51976;47.332;9.404;2023-04-03T10:59:21;6.07;;;4.25;;
65375;SDS011;51976;47.332;9.404;2023-04-03T11:01:59;10.93;;;6.90;;
65375;SDS011;51976;47.332;9.404;2023-04-03T11:04:30;14.50;;;8.38;;
65375;SDS011;51976;47.332;9.404;2023-04-03T11:07:04;9.18;;;5.80;;
65375;SDS011;51976;47.332;9.404;2023-04-03T11:09:37;14.70;;;8.85;;
65375;SDS011;51976;47.332;9.404;2023-04-03T11:14:55;7.95;;;4.60;;
65375;SDS011;51976;47.332;9.404;2023-04-03T11:17:27;6.22;;;3.58;;
65375;SDS011;51976;47.332;9.404;2023-04-03T11:20:08;4.47;;;3.40;;
65375;SDS011;51976;47.332;9.404;2023-04-03T11:22:43;6.03;;;4.15;;
65375;SDS011;51976;47.332;9.404;2023-04-03T11:25:15;8.68;;;5.88;;
65375;SDS011;51976;47.332;9.404;2023-04-03T11:27:50;8.25;;;5.47;;
65375;SDS011;51976;47.332;9.404;2023-04-03T11:30:27;8.65;;;5.55;;
65375;SDS011;51976;47.332;9.404;2023-04-03T11:33:16;11.00;;;7.18;;
65375;SDS011;51976;47.332;9.404;2023-04-03T11:35:59;6.25;;;4.22;;
65375;SDS011;51976;47.332;9.404;2023-04-03T11:38:31;8.43;;;5.13;;
65375;SDS011;51976;47.332;9.404;2023-04-03T11:41:01;4.90;;;4.22;;
65375;SDS011;51976;47.332;9.404;2023-04-03T11:43:30;7.32;;;3.80;;
65375;SDS011;51976;47.332;9.404;2023-04-03T11:46:03;4.97;;;3.95;;
65375;SDS011;51976;47.332;9.404;2023-04-03T11:54:35;5.05;;;3.67;;
65375;SDS011;51976;47.332;9.404;2023-04-03T11:57:22;4.72;;;3.47;;
65375;SDS011;51976;47.332;9.404;2023-04-03T11:59:48;5.80;;;3.92;;
65375;SDS011;51976;47.332;9.404;2023-04-03T12:02:35;7.65;;;4.10;;
65375;SDS011;51976;47.332;9.404;2023-04-03T12:05:25;5.45;;;4.15;;
65375;SDS011;51976;47.332;9.404;2023-04-03T12:08:43;6.00;;;3.78;;
65375;SDS011;51976;47.332;9.404;2023-04-03T12:11:25;8.15;;;4.60;;
65375;SDS011;51976;47.332;9.404;2023-04-03T12:14:04;4.53;;;3.72;;
65375;SDS011;51976;47.332;9.404;2023-04-03T12:16:44;6.05;;;3.65;;
65375;SDS011;51976;47.332;9.404;2023-04-03T12:19:37;5.32;;;4.07;;
65375;SDS011;51976;47.332;9.404;2023-04-03T12:22:05;5.53;;;4.30;;
65375;SDS011;51976;47.332;9.404;2023-04-03T12:24:33;6.32;;;4.25;;
65375;SDS011;51976;47.332;9.404;2023-04-03T12:27:18;4.90;;;3.92;;
65375;SDS011;51976;47.332;9.404;2023-04-03T12:30:00;5.85;;;4.00;;
65375;SDS011;51976;47.332;9.404;2023-04-03T12:32:48;5.57;;;4.32;;
65375;SDS011;51976;47.332;9.404;2023-04-03T12:35:34;5.50;;;4.00;;
65375;SDS011;51976;47.332;9.404;2023-04-03T12:38:14;4.85;;;3.58;;
65375;SDS011;51976;47.332;9.404;2023-04-03T12:41:06;7.70;;;4.38;;
65375;SDS011;51976;47.332;9.404;2023-04-03T12:43:50;5.20;;;4.00;;
65375;SDS011;51976;47.332;9.404;2023-04-03T12:49:18;6.47;;;4.18;;
65375;SDS011;51976;47.332;9.404;2023-04-03T12:51:58;6.25;;;4.60;;
65375;SDS011;51976;47.332;9.404;2023-04-03T12:54:30;6.30;;;4.60;;
65375;SDS011;51976;47.332;9.404;2023-04-03T12:59:44;4.40;;;3.45;;
65375;SDS011;51976;47.332;9.404;2023-04-03T13:02:17;5.95;;;3.83;;
65375;SDS011;51976;47.332;9.404;2023-04-03T13:04:48;5.78;;;4.07;;
65375;SDS011;51976;47.332;9.404;2023-04-03T13:07:19;5.10;;;3.83;;
65375;SDS011;51976;47.332;9.404;2023-04-03T13:09:55;6.85;;;4.35;;
65375;SDS011;51976;47.332;9.404;2023-04-03T13:12:22;5.35;;;4.20;;
65375;SDS011;51976;47.332;9.404;2023-04-03T13:14:51;4.43;;;3.78;;
65375;SDS011;51976;47.332;9.404;2023-04-03T13:17:19;6.45;;;4.40;;
65375;SDS011;51976;47.332;9.404;2023-04-03T13:19:45;6.30;;;4.47;;
65375;SDS011;51976;47.332;9.404;2023-04-03T13:22:27;6.63;;;4.10;;
65375;SDS011;51976;47.332;9.404;2023-04-03T13:25:04;6.20;;;3.92;;
65375;SDS011;51976;47.332;9.404;2023-04-03T13:27:33;5.40;;;3.85;;
65375;SDS011;51976;47.332;9.404;2023-04-03T13:29:59;6.35;;;3.90;;
65375;SDS011;51976;47.332;9.404;2023-04-03T13:32:28;4.57;;;3.45;;
65375;SDS011;51976;47.332;9.404;2023-04-03T13:34:54;5.72;;;3.33;;
65375;SDS011;51976;47.332;9.404;2023-04-03T13:37:24;5.93;;;3.88;;
65375;SDS011;51976;47.332;9.404;2023-04-03T13:42:38;5.50;;;3.33;;
65375;SDS011;51976;47.332;9.404;2023-04-03T13:45:09;3.42;;;2.97;;
65375;SDS011;51976;47.332;9.404;2023-04-03T13:47:41;4.45;;;3.10;;
65375;SDS011;51976;47.332;9.404;2023-04-03T13:50:16;5.88;;;3.55;;
65375;SDS011;51976;47.332;9.404;2023-04-03T13:52:49;5.63;;;2.60;;
65375;SDS011;51976;47.332;9.404;2023-04-03T13:55:32;4.40;;;3.03;;
65375;SDS011;51976;47.332;9.404;2023-04-03T13:58:01;4.55;;;3.10;;
65375;SDS011;51976;47.332;9.404;2023-04-03T14:00:48;5.18;;;2.40;;
65375;SDS011;51976;47.332;9.404;2023-04-03T14:03:22;3.67;;;2.92;;
65375;SDS011;51976;47.332;9.404;2023-04-03T14:05:53;4.35;;;2.35;;
65375;SDS011;51976;47.332;9.404;2023-04-03T14:08:20;6.55;;;2.45;;
65375;SDS011;51976;47.332;9.404;2023-04-03T14:10:46;4.13;;;2.88;;
65375;SDS011;51976;47.332;9.404;2023-04-03T14:13:14;4.05;;;2.88;;
65375;SDS011;51976;47.332;9.404;2023-04-03T14:15:41;7.10;;;3.20;;
65375;SDS011;51976;47.332;9.404;2023-04-03T14:18:14;5.22;;;2.78;;
65375;SDS011;51976;47.332;9.404;2023-04-03T14:20:42;5.00;;;2.60;;
65375;SDS011;51976;47.332;9.404;2023-04-03T14:23:08;6.00;;;2.30;;
65375;SDS011;51976;47.332;9.404;2023-04-03T14:25:34;6.20;;;3.08;;
65375;SDS011;51976;47.332;9.404;2023-04-03T14:27:59;3.75;;;2.75;;
65375;SDS011;51976;47.332;9.404;2023-04-03T14:30:27;4.15;;;2.78;;
65375;SDS011;51976;47.332;9.404;2023-04-03T14:32:54;4.30;;;3.10;;
65375;SDS011;51976;47.332;9.404;2023-04-03T14:35:20;4.53;;;2.88;;
65375;SDS011;51976;47.332;9.404;2023-04-03T14:37:50;3.83;;;2.92;;
65375;SDS011;51976;47.332;9.404;2023-04-03T14:40:24;4.93;;;2.50;;
65375;SDS011;51976;47.332;9.404;2023-04-03T14:42:51;4.47;;;2.63;;
65375;SDS011;51976;47.332;9.404;2023-04-03T14:45:19;5.28;;;2.63;;
65375;SDS011;51976;47.332;9.404;2023-04-03T14:47:47;3.95;;;2.60;;
65375;SDS011;51976;47.332;9.404;2023-04-03T14:50:16;4.20;;;3.22;;
65375;SDS011;51976;47.332;9.404;2023-04-03T14:52:46;5.03;;;2.63;;
65375;SDS011;51976;47.332;9.404;2023-04-03T14:55:12;3.42;;;2.90;;
65375;SDS011;51976;47.332;9.404;2023-04-03T14:57:40;3.20;;;2.53;;
65375;SDS011;51976;47.332;9.404;2023-04-03T15:00:07;5.15;;;2.85;;
65375;SDS011;51976;47.332;9.404;2023-04-03T15:02:37;4.30;;;2.80;;
65375;SDS011;51976;47.332;9.404;2023-04-03T15:05:05;5.00;;;2.80;;
65375;SDS011;51976;47.332;9.404;2023-04-03T15:07:33;5.53;;;3.03;;
65375;SDS011;51976;47.332;9.404;2023-04-03T15:10:02;3.88;;;2.72;;
65375;SDS011;51976;47.332;9.404;2023-04-03T15:12:45;5.72;;;3.08;;
65375;SDS011;51976;47.332;9.404;2023-04-03T15:15:11;5.03;;;2.85;;
65375;SDS011;51976;47.332;9.404;2023-04-03T15:17:37;3.83;;;2.75;;
65375;SDS011;51976;47.332;9.404;2023-04-03T15:20:05;4.22;;;2.90;;
65375;SDS011;51976;47.332;9.404;2023-04-03T15:22:38;6.80;;;2.97;;
65375;SDS011;51976;47.332;9.404;2023-04-03T15:25:03;4.40;;;2.85;;
65375;SDS011;51976;47.332;9.404;2023-04-03T15:27:29;8.90;;;2.75;;
65375;SDS011;51976;47.332;9.404;2023-04-03T15:29:55;3.63;;;2.30;;
65375;SDS011;51976;47.332;9.404;2023-04-03T15:32:20;4.47;;;2.70;;